Time;durP1;ratioP1;P1;durP2;ratioP2;P2;SDS_P1;SDS_P2;PMS_P1;PMS_P2;Temp;Humidity;BMP_temperature;BMP_pressure;BME280_temperature;BME280_humidity;BME280_pressure;Samples;Min_cycle;Max_cycle;Signal;HPM_P1;HPM_P2
2023/06/27 00:00:59;;;;;;;6.47;2.25;;;;;;;14.18;72.31;96365.97;2115353;28;20051;-57
2023/06/27 00:02:02;;;;;;;9.30;2.50;;;;;;;14.17;70.96;96366.91;2115129;28;20046;-57
2023/06/27 00:03:05;;;;;;;8.73;2.55;;;;;;;14.20;71.12;96373.72;2115301;28;20471;-57
2023/06/27 00:04:06;;;;;;;7.70;2.30;;;;;;;14.05;72.06;96360.56;2115865;28;20050;-57
2023/06/27 00:05:08;;;;;;;7.30;1.98;;;;;;;14.15;71.81;96373.97;2115009;28;20056;-57
2023/06/27 00:06:09;;;;;;;7.28;2.20;;;;;;;14.19;71.82;96377.25;2115817;28;20039;-57
2023/06/27 00:07:10;;;;;;;8.25;2.17;;;;;;;14.16;70.36;96373.03;2115821;28;20036;-57
2023/06/27 00:08:12;;;;;;;3.72;1.92;;;;;;;14.16;69.13;96353.91;2114854;28;20059;-56
2023/06/27 00:09:15;;;;;;;5.78;1.88;;;;;;;14.21;69.82;96378.00;2116187;28;20039;-57
2023/06/27 00:10:16;;;;;;;9.52;2.00;;;;;;;14.08;70.80;96354.34;2114910;28;20447;-57
2023/06/27 00:11:17;;;;;;;5.85;2.28;;;;;;;14.22;69.19;96375.31;2116057;28;20060;-56
2023/06/27 00:12:18;;;;;;;9.05;2.30;;;;;;;14.19;70.20;96378.06;2115999;28;20058;-56
2023/06/27 00:13:20;;;;;;;9.27;2.47;;;;;;;14.16;71.50;96373.03;2115781;28;20479;-57
2023/06/27 00:14:21;;;;;;;7.20;2.20;;;;;;;14.11;71.55;96377.66;2114813;28;20055;-57
2023/06/27 00:15:23;;;;;;;5.30;1.90;;;;;;;14.08;71.26;96380.44;2115339;28;20051;-57
2023/06/27 00:16:27;;;;;;;5.10;1.95;;;;;;;14.09;71.12;96385.59;2114479;28;20051;-56
2023/06/27 00:17:28;;;;;;;4.65;2.13;;;;;;;14.07;71.97;96384.84;2115404;28;20036;-56
2023/06/27 00:18:34;;;;;;;5.53;2.13;;;;;;;14.02;71.55;96376.41;2115966;28;20047;-57
2023/06/27 00:19:35;;;;;;;6.00;1.88;;;;;;;14.00;71.36;96388.69;2115899;28;20044;-57
2023/06/27 00:20:36;;;;;;;4.80;2.03;;;;;;;14.05;70.61;96375.41;2115907;28;20039;-57
2023/06/27 00:21:37;;;;;;;8.73;2.22;;;;;;;14.00;71.12;96367.81;2115259;28;20131;-57
2023/06/27 00:22:41;;;;;;;4.38;1.98;;;;;;;14.09;70.71;96372.53;2114720;28;20485;-57
2023/06/27 00:23:43;;;;;;;5.45;1.95;;;;;;;14.18;69.99;96365.13;2115048;28;20557;-56
2023/06/27 00:24:44;;;;;;;7.97;2.25;;;;;;;14.10;69.88;96355.09;2115548;28;20039;-57
2023/06/27 00:25:45;;;;;;;6.40;2.10;;;;;;;14.05;71.06;96357.94;2115053;28;20487;-57
2023/06/27 00:26:46;;;;;;;7.88;2.20;;;;;;;14.12;70.33;96371.53;2115591;28;20044;-57
2023/06/27 00:27:47;;;;;;;6.22;1.90;;;;;;;14.08;70.17;96378.66;2115290;28;20601;-57
2023/06/27 00:28:48;;;;;;;7.22;1.90;;;;;;;14.17;69.14;96372.13;2106660;28;20486;-57
2023/06/27 00:29:50;;;;;;;4.18;1.90;;;;;;;14.18;68.80;96375.56;2106697;28;20054;-57
2023/06/27 00:30:51;;;;;;;5.68;2.17;;;;;;;14.19;68.93;96369.41;2106631;28;20066;-57
2023/06/27 00:31:52;;;;;;;7.30;2.15;;;;;;;14.15;69.62;96373.97;2105823;28;20051;-57
2023/06/27 00:32:53;;;;;;;7.03;1.92;;;;;;;14.15;69.48;96376.56;2115020;28;20044;-57
2023/06/27 00:33:54;;;;;;;5.72;2.13;;;;;;;14.09;70.39;96384.75;2115811;28;20459;-57
2023/06/27 00:34:55;;;;;;;6.20;2.25;;;;;;;13.99;70.21;96370.53;2106736;28;20059;-57
2023/06/27 00:35:57;;;;;;;5.03;2.17;;;;;;;14.07;70.84;96397.06;2106000;28;20055;-57
2023/06/27 00:36:58;;;;;;;8.48;2.00;;;;;;;14.12;69.42;96393.25;2105933;28;20167;-57
2023/06/27 00:38:04;;;;;;;8.50;2.17;;;;;;;14.21;68.13;96391.06;2115022;28;20499;-57
2023/06/27 00:39:05;;;;;;;8.15;1.98;;;;;;;14.14;68.40;96390.56;2106152;28;20480;-56
2023/06/27 00:40:08;;;;;;;5.00;1.83;;;;;;;14.11;69.07;96393.31;2105562;28;20115;-57
2023/06/27 00:41:11;;;;;;;5.72;1.85;;;;;;;14.15;69.35;96399.25;2106741;28;20051;-57
2023/06/27 00:42:12;;;;;;;7.68;2.35;;;;;;;14.12;68.35;96387.19;2106661;28;20427;-56
2023/06/27 00:43:13;;;;;;;6.70;2.10;;;;;;;14.15;68.94;96394.84;2106100;28;20056;-57
2023/06/27 00:44:14;;;;;;;6.03;1.95;;;;;;;14.10;69.41;96392.50;2115522;28;20058;-56
2023/06/27 00:45:15;;;;;;;6.82;2.13;;;;;;;14.07;70.12;96397.88;2115844;28;20043;-56
2023/06/27 00:46:26;;;;;;;3.92;1.77;;;;;;;14.09;69.12;96400.44;2105833;28;20052;-57
2023/06/27 00:47:28;;;;;;;9.40;2.35;;;;;;;14.07;68.99;96400.50;2090604;28;20555;-56
2023/06/27 00:48:30;;;;;;;5.53;1.77;;;;;;;14.10;68.77;96402.09;2098418;28;20056;-57
2023/06/27 00:49:31;;;;;;;6.05;1.90;;;;;;;14.03;69.57;96393.78;2106460;28;20048;-57
2023/06/27 00:50:32;;;;;;;8.25;2.05;;;;;;;14.05;69.68;96401.50;2089450;28;20097;-56
2023/06/27 00:51:33;;;;;;;7.22;1.63;;;;;;;14.06;70.23;96408.41;2089150;28;20064;-56
2023/06/27 00:52:34;;;;;;;5.35;2.03;;;;;;;14.05;69.61;96404.13;2098314;28;20543;-56
2023/06/27 00:53:35;;;;;;;5.13;1.90;;;;;;;14.10;68.96;96404.72;2098179;28;20053;-56
2023/06/27 00:54:36;;;;;;;13.77;2.42;;;;;;;14.07;69.25;96403.13;2098091;28;20048;-56
2023/06/27 00:55:39;;;;;;;6.28;1.95;;;;;;;14.04;69.63;96402.44;2089221;28;20059;-57
2023/06/27 00:56:40;;;;;;;5.97;1.88;;;;;;;14.15;68.59;96407.91;2089360;28;20500;-56
2023/06/27 00:57:41;;;;;;;9.88;2.55;;;;;;;14.03;67.96;96383.34;2098468;28;20045;-56
2023/06/27 00:58:42;;;;;;;7.47;2.00;;;;;;;14.13;68.33;96404.53;2097741;28;20488;-56
2023/06/27 00:59:44;;;;;;;6.13;2.35;;;;;;;14.14;69.07;96414.09;2097432;28;20060;-56
2023/06/27 01:00:48;;;;;;;4.97;1.95;;;;;;;14.07;68.71;96403.13;2105855;28;20095;-56
2023/06/27 01:01:49;;;;;;;7.55;1.98;;;;;;;14.12;69.81;96416.75;2106779;28;20047;-57
2023/06/27 01:02:50;;;;;;;6.15;2.08;;;;;;;14.10;69.47;96410.78;2114582;28;20435;-57
2023/06/27 01:03:51;;;;;;;7.07;2.05;;;;;;;14.12;69.75;96403.72;2114751;28;20505;-58
2023/06/27 01:04:52;;;;;;;6.10;1.80;;;;;;;14.09;70.49;96406.50;2115441;28;20399;-58
2023/06/27 01:05:54;;;;;;;8.82;2.38;;;;;;;14.05;70.82;96410.19;2115373;28;20043;-58
2023/06/27 01:06:57;;;;;;;8.45;2.17;;;;;;;14.02;70.51;96410.34;2089115;28;20448;-58
2023/06/27 01:08:03;;;;;;;7.60;1.77;;;;;;;14.00;69.87;96406.13;2090822;28;20060;-58
2023/06/27 01:09:34;;;;;;;6.22;1.90;;;;;;;14.03;69.87;96414.66;2105806;28;20059;-58
2023/06/27 01:10:41;;;;;;;4.55;1.90;;;;;;;13.98;68.91;96400.16;2102200;28;20036;-58
2023/06/27 01:11:45;;;;;;;5.75;2.38;;;;;;;14.12;69.39;96414.16;2098614;28;20507;-58
2023/06/27 01:13:08;;;;;;;5.25;1.98;;;;;;;14.06;69.98;96416.25;2098963;28;20121;-58
2023/06/27 01:14:11;;;;;;;4.28;1.80;;;;;;;14.00;70.33;96413.97;2109854;28;20479;-58
2023/06/27 01:15:12;;;;;;;5.00;2.00;;;;;;;14.04;70.50;96418.13;2097946;28;20086;-58
2023/06/27 01:16:13;;;;;;;5.45;2.03;;;;;;;14.05;69.47;96425.00;2081437;28;20419;-58
2023/06/27 01:17:14;;;;;;;7.55;2.00;;;;;;;14.06;69.72;96422.31;2089138;28;20060;-58
2023/06/27 01:18:15;;;;;;;8.80;2.08;;;;;;;14.05;70.20;96414.56;2089023;28;20060;-58
2023/06/27 01:19:17;;;;;;;7.50;2.03;;;;;;;14.09;69.88;96418.72;2089657;28;20049;-58
2023/06/27 01:20:18;;;;;;;5.53;1.98;;;;;;;14.06;69.51;96414.50;2097516;28;20053;-58
2023/06/27 01:21:20;;;;;;;5.95;2.25;;;;;;;14.01;68.55;96400.00;2088881;28;20496;-58
2023/06/27 01:22:29;;;;;;;7.20;1.95;;;;;;;14.17;67.85;96413.91;2089632;28;20069;-58
2023/06/27 01:23:39;;;;;;;5.55;1.85;;;;;;;14.15;68.83;96420.97;2105465;28;20048;-58
2023/06/27 01:24:41;;;;;;;7.75;2.05;;;;;;;14.17;68.59;96413.91;2097402;28;20432;-58
2023/06/27 01:25:42;;;;;;;4.50;2.17;;;;;;;14.12;69.35;96418.53;2090028;28;20052;-58
2023/06/27 01:26:43;;;;;;;7.30;2.05;;;;;;;14.06;69.67;96413.63;2105740;28;20068;-58
2023/06/27 01:27:44;;;;;;;4.25;1.85;;;;;;;14.06;69.50;96418.84;2105487;28;20425;-58
2023/06/27 01:28:46;;;;;;;7.30;1.85;;;;;;;14.03;69.27;96411.19;2106374;28;20039;-59
2023/06/27 01:29:48;;;;;;;6.65;2.00;;;;;;;14.01;69.77;96416.50;2114474;28;20052;-58
2023/06/27 01:30:49;;;;;;;7.55;2.22;;;;;;;14.00;69.27;96420.03;2105403;28;20056;-58
2023/06/27 01:31:57;;;;;;;10.00;2.38;;;;;;;14.00;69.21;96413.97;2097079;28;20048;-58
2023/06/27 01:33:03;;;;;;;4.15;2.15;;;;;;;13.96;69.40;96405.47;2106418;28;20036;-58
2023/06/27 01:34:17;;;;;;;6.75;1.88;;;;;;;13.99;69.36;96420.13;2098877;28;20055;-58
2023/06/27 01:35:25;;;;;;;5.55;1.80;;;;;;;13.95;69.48;96424.66;2091138;28;20400;-58
2023/06/27 01:36:46;;;;;;;6.80;2.22;;;;;;;13.92;69.80;96423.97;2082926;28;20049;-58
2023/06/27 01:37:53;;;;;;;4.30;1.90;;;;;;;13.80;70.44;96405.44;2103995;28;20032;-58
2023/06/27 01:39:01;;;;;;;8.65;1.98;;;;;;;13.82;69.41;96411.44;2105817;28;20177;-58
2023/06/27 01:40:08;;;;;;;4.50;2.20;;;;;;;13.78;69.59;96398.63;2098568;28;20044;-58
2023/06/27 01:41:09;;;;;;;3.80;1.92;;;;;;;13.79;69.72;96400.31;2099196;28;20139;-58
2023/06/27 01:42:22;;;;;;;9.35;2.03;;;;;;;13.89;69.67;96420.59;2097831;28;20048;-58
2023/06/27 01:43:23;;;;;;;3.80;1.85;;;;;;;13.89;69.61;96423.22;2098516;28;20059;-58
2023/06/27 01:44:25;;;;;;;3.38;1.70;;;;;;;13.83;69.74;96417.50;2089679;28;20063;-58
2023/06/27 01:45:26;;;;;;;6.00;1.80;;;;;;;13.81;69.89;96419.34;2089271;28;20151;-58
2023/06/27 01:46:27;;;;;;;7.28;1.98;;;;;;;13.75;70.49;96412.69;2081434;28;20057;-58
2023/06/27 01:47:29;;;;;;;6.20;2.30;;;;;;;13.80;69.16;96422.88;2080888;28;20088;-58
2023/06/27 01:48:30;;;;;;;5.38;1.92;;;;;;;13.86;69.89;96422.56;2089208;28;20045;-58
2023/06/27 01:49:31;;;;;;;6.80;1.83;;;;;;;13.83;69.60;96417.50;2080757;28;20076;-57
2023/06/27 01:50:33;;;;;;;5.55;1.88;;;;;;;13.78;69.46;96412.50;2097083;28;20052;-58
2023/06/27 01:51:34;;;;;;;5.30;1.83;;;;;;;13.80;69.50;96415.06;2114355;28;20058;-58
2023/06/27 01:52:35;;;;;;;6.38;2.03;;;;;;;13.77;69.34;96416.06;2115078;28;20428;-58
2023/06/27 01:53:36;;;;;;;5.45;2.03;;;;;;;13.80;69.19;96413.28;2105879;28;20052;-58
2023/06/27 01:54:37;;;;;;;9.40;2.15;;;;;;;13.73;69.50;96411.91;2105930;28;20039;-58
2023/06/27 01:55:38;;;;;;;6.90;1.92;;;;;;;13.71;69.37;96408.53;2115164;28;20479;-58
2023/06/27 01:56:39;;;;;;;10.90;1.95;;;;;;;13.64;69.26;96391.53;2114438;28;20051;-58
2023/06/27 01:57:40;;;;;;;4.45;2.05;;;;;;;13.68;69.55;96383.47;2105424;28;20119;-58
2023/06/27 01:58:41;;;;;;;6.13;1.95;;;;;;;13.75;69.39;96404.00;2097684;28;20582;-58
2023/06/27 01:59:43;;;;;;;5.90;1.83;;;;;;;13.80;69.21;96402.84;2105993;28;20074;-58
2023/06/27 02:00:44;;;;;;;5.43;2.05;;;;;;;13.68;69.33;96391.31;2113746;28;20052;-58
2023/06/27 02:01:45;;;;;;;5.57;2.20;;;;;;;13.76;69.28;96405.69;2106040;28;20479;-58
2023/06/27 02:02:46;;;;;;;5.05;1.80;;;;;;;13.74;69.73;96403.19;2105288;28;20059;-58
2023/06/27 02:03:49;;;;;;;4.78;1.92;;;;;;;13.72;69.64;96399.81;2106025;28;20043;-58
2023/06/27 02:04:50;;;;;;;9.32;2.28;;;;;;;13.69;70.10;96399.97;2105940;28;20043;-58
2023/06/27 02:05:51;;;;;;;6.57;1.95;;;;;;;13.67;70.08;96404.41;2114449;28;20051;-58
2023/06/27 02:06:52;;;;;;;7.00;2.00;;;;;;;13.68;70.02;96398.25;2115077;28;20118;-58
2023/06/27 02:07:53;;;;;;;3.45;1.67;;;;;;;13.64;70.11;96407.19;2105820;28;20043;-58
2023/06/27 02:08:54;;;;;;;4.13;2.10;;;;;;;13.62;70.13;96406.41;2105828;28;20040;-58
2023/06/27 02:09:55;;;;;;;8.10;2.08;;;;;;;13.62;70.55;96404.66;2114006;28;20372;-58
2023/06/27 02:10:57;;;;;;;5.10;1.88;;;;;;;13.63;70.31;96405.50;2114410;28;20055;-58
2023/06/27 02:11:58;;;;;;;6.13;2.28;;;;;;;13.58;70.40;96407.50;2114323;28;20059;-58
2023/06/27 02:13:01;;;;;;;5.38;2.03;;;;;;;13.55;70.94;96410.28;2114243;28;20398;-58
2023/06/27 02:14:02;;;;;;;4.13;1.85;;;;;;;13.57;70.60;96411.88;2105306;28;20044;-58
2023/06/27 02:15:03;;;;;;;6.45;2.17;;;;;;;13.52;71.17;96418.25;2097602;28;20059;-58
2023/06/27 02:16:04;;;;;;;4.57;1.73;;;;;;;13.51;70.80;96414.81;2104983;28;20059;-58
2023/06/27 02:17:05;;;;;;;5.88;1.98;;;;;;;13.33;71.08;96385.31;2105502;28;20059;-58
2023/06/27 02:18:06;;;;;;;5.40;2.20;;;;;;;13.46;70.99;96411.59;2105252;28;20075;-58
2023/06/27 02:19:08;;;;;;;6.13;2.30;;;;;;;13.35;71.20;96393.06;2097051;28;20049;-58
2023/06/27 02:20:09;;;;;;;7.00;2.10;;;;;;;13.43;71.85;96409.16;2097329;28;20043;-58
2023/06/27 02:21:10;;;;;;;5.43;2.00;;;;;;;13.39;72.00;96405.88;2097474;28;20099;-58
2023/06/27 02:22:11;;;;;;;6.50;2.08;;;;;;;13.41;71.36;96411.00;2097064;28;20075;-58
2023/06/27 02:23:14;;;;;;;7.82;1.92;;;;;;;13.37;71.50;96407.72;2097119;28;20052;-58
2023/06/27 02:24:15;;;;;;;9.45;2.20;;;;;;;13.29;71.58;96396.84;2104772;28;20062;-58
2023/06/27 02:25:18;;;;;;;5.38;2.47;;;;;;;13.38;72.93;96411.16;2105584;28;20049;-58
2023/06/27 02:26:20;;;;;;;6.00;2.20;;;;;;;13.37;72.05;96409.47;2105707;28;20051;-58
2023/06/27 02:27:21;;;;;;;5.18;2.20;;;;;;;13.35;72.36;96414.75;2114764;28;20087;-58
2023/06/27 02:28:22;;;;;;;8.95;2.35;;;;;;;13.33;73.26;96407.94;2114191;28;20151;-58
2023/06/27 02:29:23;;;;;;;7.55;2.20;;;;;;;13.31;73.15;96404.56;2114332;28;20056;-58
2023/06/27 02:30:24;;;;;;;5.05;2.00;;;;;;;13.27;73.37;96410.88;2105913;28;20399;-58
2023/06/27 02:31:26;;;;;;;6.45;2.25;;;;;;;13.22;73.31;96411.06;2097099;28;20052;-58
2023/06/27 02:32:27;;;;;;;4.38;2.20;;;;;;;13.16;73.59;96408.78;2105030;28;20052;-58
2023/06/27 02:33:28;;;;;;;5.72;2.00;;;;;;;13.14;73.25;96408.00;2105356;28;20048;-58
2023/06/27 02:34:29;;;;;;;5.25;2.25;;;;;;;13.10;74.09;96406.50;2104961;28;20475;-58
2023/06/27 02:35:30;;;;;;;5.40;1.85;;;;;;;13.08;74.06;96403.94;2114335;28;20493;-58
2023/06/27 02:36:32;;;;;;;5.57;2.25;;;;;;;13.05;74.30;96405.88;2114923;28;20042;-58
2023/06/27 02:37:33;;;;;;;4.53;2.40;;;;;;;13.03;74.15;96406.78;2114584;28;20051;-58
2023/06/27 02:38:34;;;;;;;5.13;2.22;;;;;;;13.08;73.68;96408.31;2114635;28;20479;-58
2023/06/27 02:39:35;;;;;;;10.88;2.28;;;;;;;13.09;74.19;96407.41;2104772;28;20052;-58
2023/06/27 02:40:36;;;;;;;5.70;2.22;;;;;;;13.07;74.14;96409.22;2105072;28;20056;-58
2023/06/27 02:41:39;;;;;;;5.72;2.15;;;;;;;13.08;74.34;96409.16;2097647;28;20053;-58
2023/06/27 02:42:40;;;;;;;4.68;1.98;;;;;;;13.07;74.10;96401.41;2096864;28;20471;-58
2023/06/27 02:43:41;;;;;;;4.07;2.03;;;;;;;13.04;74.50;96397.19;2097502;28;20048;-58
2023/06/27 02:44:42;;;;;;;8.25;2.30;;;;;;;13.05;75.35;96400.66;2106190;28;20044;-58
2023/06/27 02:45:43;;;;;;;7.75;2.67;;;;;;;12.91;75.23;96376.13;2104758;28;20107;-58
2023/06/27 02:46:45;;;;;;;7.88;2.15;;;;;;;13.00;74.77;96403.50;2105961;28;20048;-58
2023/06/27 02:47:46;;;;;;;8.48;2.45;;;;;;;12.98;74.81;96400.13;2105953;28;20048;-58
2023/06/27 02:48:47;;;;;;;5.60;2.05;;;;;;;12.97;75.11;96395.84;2096784;28;20049;-59
2023/06/27 02:49:48;;;;;;;9.15;2.03;;;;;;;12.99;74.72;96394.84;2105624;28;20438;-58
2023/06/27 02:50:50;;;;;;;7.05;2.28;;;;;;;13.01;74.58;96403.41;2113797;28;20051;-58
2023/06/27 02:51:51;;;;;;;6.18;2.30;;;;;;;13.02;74.38;96399.06;2105044;28;20052;-58
2023/06/27 02:52:52;;;;;;;9.65;2.20;;;;;;;12.97;74.18;96386.25;2097348;28;20413;-58
2023/06/27 02:53:54;;;;;;;7.10;2.03;;;;;;;13.05;73.95;96393.69;2097450;28;20036;-58
2023/06/27 02:54:55;;;;;;;4.88;2.08;;;;;;;13.06;73.97;96394.53;2096555;28;20049;-58
2023/06/27 02:56:01;;;;;;;4.90;1.98;;;;;;;13.09;73.95;96394.34;2097278;28;20045;-58
2023/06/27 02:57:03;;;;;;;3.38;1.73;;;;;;;13.10;73.79;96394.28;2098187;28;20047;-58
2023/06/27 02:58:04;;;;;;;7.45;2.15;;;;;;;13.08;74.03;96398.72;2097204;28;20044;-58
2023/06/27 02:59:06;;;;;;;11.90;2.10;;;;;;;13.09;74.38;96402.19;2097366;28;20055;-58
2023/06/27 03:00:08;;;;;;;4.63;2.53;;;;;;;12.98;74.83;96390.53;2096612;28;20060;-58
2023/06/27 03:01:12;;;;;;;6.55;2.30;;;;;;;13.07;74.14;96404.00;2096334;28;20500;-58
2023/06/27 03:02:16;;;;;;;8.65;2.17;;;;;;;13.03;74.40;96406.78;2098092;28;20507;-58
2023/06/27 03:03:17;;;;;;;4.15;1.80;;;;;;;13.09;74.16;96410.84;2096726;28;20053;-58
2023/06/27 03:04:21;;;;;;;4.88;1.90;;;;;;;13.10;73.59;96404.72;2097080;28;20044;-59
2023/06/27 03:05:23;;;;;;;5.07;2.28;;;;;;;13.14;73.48;96408.84;2096804;28;20455;-58
2023/06/27 03:06:25;;;;;;;11.82;2.55;;;;;;;13.13;73.58;96412.38;2097023;28;20045;-58
2023/06/27 03:07:26;;;;;;;7.78;2.20;;;;;;;13.14;74.52;96408.00;2091740;28;20045;-59
2023/06/27 03:08:31;;;;;;;5.25;2.33;;;;;;;13.12;74.71;96407.22;2088658;28;20061;-58
2023/06/27 03:09:35;;;;;;;6.78;2.15;;;;;;;13.19;74.32;96408.63;2097344;28;20197;-58
2023/06/27 03:10:36;;;;;;;6.57;1.70;;;;;;;13.22;74.07;96416.28;2104825;28;20102;-57
2023/06/27 03:11:37;;;;;;;7.97;2.45;;;;;;;13.20;74.16;96418.97;2104856;28;20071;-58
2023/06/27 03:12:38;;;;;;;5.93;2.03;;;;;;;13.25;74.17;96424.78;2096651;28;20052;-58
2023/06/27 03:13:39;;;;;;;7.28;2.45;;;;;;;13.25;74.23;96416.13;2105602;28;20495;-58
2023/06/27 03:14:41;;;;;;;3.55;1.88;;;;;;;13.27;73.66;96422.16;2105610;28;20384;-58
2023/06/27 03:15:42;;;;;;;6.15;2.40;;;;;;;13.24;74.29;96417.88;2104987;28;20056;-58
2023/06/27 03:16:44;;;;;;;4.32;2.28;;;;;;;13.36;73.78;96421.66;2105520;28;20043;-58
2023/06/27 03:17:45;;;;;;;4.07;2.10;;;;;;;13.33;73.86;96421.81;2104923;28;20515;-58
2023/06/27 03:18:46;;;;;;;5.03;2.17;;;;;;;13.32;73.30;96422.75;2105512;28;20048;-58
2023/06/27 03:19:47;;;;;;;6.55;2.22;;;;;;;13.34;73.44;96427.88;2097267;28;20047;-58
2023/06/27 03:20:50;;;;;;;5.10;2.10;;;;;;;13.33;73.34;96429.63;2096477;28;20079;-58
2023/06/27 03:21:51;;;;;;;7.97;2.00;;;;;;;13.32;73.46;96427.97;2096783;28;20053;-58
2023/06/27 03:22:53;;;;;;;6.53;1.92;;;;;;;13.35;73.70;96432.19;2097246;28;20427;-58
2023/06/27 03:23:54;;;;;;;4.45;2.10;;;;;;;13.36;72.88;96429.47;2097135;28;20067;-58
2023/06/27 03:24:55;;;;;;;8.55;2.35;;;;;;;13.36;72.81;96431.25;2096744;28;20478;-58
2023/06/27 03:25:57;;;;;;;8.38;2.28;;;;;;;13.28;73.09;96408.16;2097210;28;20051;-58
2023/06/27 03:26:58;;;;;;;7.03;2.15;;;;;;;13.37;72.87;96427.75;2097180;28;20119;-58
2023/06/27 03:28:02;;;;;;;4.97;2.30;;;;;;;13.43;73.42;96438.69;2096482;28;20052;-57
2023/06/27 03:29:03;;;;;;;8.55;2.10;;;;;;;13.33;73.66;96416.59;2097091;28;20506;-58
2023/06/27 03:30:07;;;;;;;4.68;2.00;;;;;;;13.37;73.64;96420.75;2097143;28;20056;-58
2023/06/27 03:31:08;;;;;;;5.93;2.05;;;;;;;13.41;72.98;96426.66;2096864;28;20059;-58
2023/06/27 03:32:10;;;;;;;8.13;2.35;;;;;;;13.44;73.62;96432.56;2097132;28;20048;-58
2023/06/27 03:33:11;;;;;;;6.97;2.25;;;;;;;13.44;73.87;96429.97;2096510;28;20044;-58
2023/06/27 03:34:13;;;;;;;8.88;2.30;;;;;;;13.43;74.27;96436.09;2097053;28;20048;-58
2023/06/27 03:35:14;;;;;;;4.00;2.30;;;;;;;13.42;73.92;96430.97;2096747;28;20053;-58
2023/06/27 03:36:15;;;;;;;7.65;2.20;;;;;;;13.44;74.34;96442.13;2096533;28;20048;-58
2023/06/27 03:37:16;;;;;;;5.53;2.40;;;;;;;13.44;74.48;96437.78;2096531;28;20045;-58
2023/06/27 03:38:17;;;;;;;3.95;2.05;;;;;;;13.35;74.59;96417.38;2097147;28;20523;-58
2023/06/27 03:39:18;;;;;;;5.07;2.17;;;;;;;13.49;74.10;96431.47;2096847;28;20546;-58
2023/06/27 03:40:22;;;;;;;5.13;2.15;;;;;;;13.51;73.84;96437.47;2097249;28;20442;-58
2023/06/27 03:41:23;;;;;;;5.50;2.20;;;;;;;13.53;73.79;96438.22;2097208;28;20060;-58
2023/06/27 03:42:24;;;;;;;5.30;2.17;;;;;;;13.53;73.87;96435.63;2097184;28;20052;-58
2023/06/27 03:43:26;;;;;;;5.22;2.17;;;;;;;13.53;73.22;96433.00;2097378;28;20045;-58
2023/06/27 03:44:31;;;;;;;5.28;2.17;;;;;;;13.56;73.03;96427.63;2105445;28;20040;-58
2023/06/27 03:45:32;;;;;;;6.53;2.45;;;;;;;13.58;73.12;96429.25;2105576;28;20051;-58
2023/06/27 03:46:34;;;;;;;6.28;2.42;;;;;;;13.60;73.37;96434.34;2096549;28;20060;-58
2023/06/27 03:47:37;;;;;;;7.80;2.33;;;;;;;13.36;73.46;96395.56;2097375;28;20045;-58
2023/06/27 03:48:39;;;;;;;9.10;2.53;;;;;;;13.64;72.92;96438.50;2096848;28;20124;-58
2023/06/27 03:49:40;;;;;;;8.40;2.47;;;;;;;13.64;72.93;96435.91;2088452;28;20064;-58
2023/06/27 03:50:41;;;;;;;7.05;2.75;;;;;;;13.65;73.19;96442.78;2096664;28;20388;-58
2023/06/27 03:51:42;;;;;;;6.25;2.60;;;;;;;13.67;72.81;96444.41;2106845;28;20051;-58
2023/06/27 03:52:43;;;;;;;5.05;2.20;;;;;;;13.66;72.88;96434.06;2098062;28;20045;-58
2023/06/27 03:53:44;;;;;;;7.80;2.47;;;;;;;13.63;72.77;96431.59;2106166;28;20111;-57
2023/06/27 03:54:46;;;;;;;4.55;2.13;;;;;;;13.60;73.11;96427.38;2106057;28;20047;-58
2023/06/27 03:55:47;;;;;;;5.60;2.47;;;;;;;13.69;73.24;96436.50;2107084;28;20043;-58
2023/06/27 03:56:48;;;;;;;8.05;2.67;;;;;;;13.65;73.41;96429.75;2106978;28;20066;-58
2023/06/27 03:57:49;;;;;;;8.05;2.58;;;;;;;13.66;73.21;96421.84;2098010;28;20045;-58
2023/06/27 03:58:50;;;;;;;8.07;2.38;;;;;;;13.70;73.24;96425.13;2098732;28;20177;-59
2023/06/27 03:59:52;;;;;;;4.82;2.08;;;;;;;13.75;73.89;96440.56;2097872;28;20049;-58
2023/06/27 04:00:53;;;;;;;5.10;2.45;;;;;;;13.68;73.35;96419.13;2089747;28;20464;-58
2023/06/27 04:01:54;;;;;;;7.00;2.92;;;;;;;13.78;73.45;96432.56;2098387;28;20051;-58
2023/06/27 04:02:56;;;;;;;5.60;2.30;;;;;;;13.82;73.25;96440.16;2098677;28;20514;-58
2023/06/27 04:03:57;;;;;;;6.30;2.08;;;;;;;13.85;73.32;96436.53;2098495;28;20436;-58
2023/06/27 04:04:58;;;;;;;5.45;2.30;;;;;;;13.85;73.41;96437.38;2105930;28;20052;-58
2023/06/27 04:05:59;;;;;;;6.25;2.30;;;;;;;13.85;73.41;96436.53;2106023;28;20052;-58
2023/06/27 04:07:00;;;;;;;8.35;2.30;;;;;;;13.86;73.34;96441.66;2105894;28;20040;-58
2023/06/27 04:08:01;;;;;;;7.22;2.47;;;;;;;13.87;74.13;96437.28;2098652;28;20068;-58
2023/06/27 04:09:03;;;;;;;8.02;2.42;;;;;;;13.84;73.35;96429.63;2098329;28;20036;-58
2023/06/27 04:10:04;;;;;;;6.82;2.50;;;;;;;13.91;73.17;96438.81;2098333;28;20067;-58
2023/06/27 04:11:05;;;;;;;7.47;2.20;;;;;;;13.92;73.29;96444.88;2097508;28;20057;-58
2023/06/27 04:12:08;;;;;;;6.97;2.22;;;;;;;13.91;73.09;96430.97;2098128;28;20432;-58
2023/06/27 04:13:09;;;;;;;5.50;2.55;;;;;;;14.02;73.11;96448.69;2106091;28;20518;-58
2023/06/27 04:14:10;;;;;;;8.63;2.33;;;;;;;14.03;72.93;96445.13;2107033;28;20048;-58
2023/06/27 04:15:11;;;;;;;6.03;2.28;;;;;;;14.04;73.07;96447.69;2106860;28;20433;-58
2023/06/27 04:16:14;;;;;;;11.38;2.53;;;;;;;14.05;72.42;96453.72;2098679;28;20048;-58
2023/06/27 04:17:16;;;;;;;5.47;2.63;;;;;;;14.07;72.49;96449.28;2107017;28;20054;-58
2023/06/27 04:18:18;;;;;;;5.32;2.28;;;;;;;14.01;72.70;96436.56;2106666;28;20538;-58
2023/06/27 04:19:19;;;;;;;7.57;2.13;;;;;;;14.09;72.41;96455.28;2098427;28;20056;-58
2023/06/27 04:20:20;;;;;;;5.60;2.40;;;;;;;14.12;72.42;96452.50;2097624;28;20048;-59
2023/06/27 04:21:21;;;;;;;9.90;2.40;;;;;;;14.16;72.22;96451.38;2098424;28;20052;-58
2023/06/27 04:22:22;;;;;;;7.53;2.83;;;;;;;14.20;72.43;96452.91;2106768;28;20048;-58
2023/06/27 04:23:25;;;;;;;8.20;2.50;;;;;;;14.22;72.31;96452.81;2106079;28;20063;-58
2023/06/27 04:24:26;;;;;;;9.10;2.17;;;;;;;14.25;72.27;96458.72;2097862;28;20060;-58
2023/06/27 04:25:30;;;;;;;7.68;2.35;;;;;;;14.27;71.21;96459.50;2098496;28;20052;-58
2023/06/27 04:26:31;;;;;;;5.80;2.42;;;;;;;14.31;72.10;96463.63;2098213;28;20059;-58
2023/06/27 04:27:32;;;;;;;6.50;2.38;;;;;;;14.36;72.11;96468.59;2106778;28;20522;-58
2023/06/27 04:28:34;;;;;;;4.35;2.05;;;;;;;14.40;71.55;96464.03;2107260;28;20055;-58
2023/06/27 04:29:35;;;;;;;7.03;2.60;;;;;;;14.40;71.09;96462.25;2106575;28;20395;-58
2023/06/27 04:30:36;;;;;;;6.05;2.33;;;;;;;14.39;71.75;96452.75;2107343;28;20040;-58
2023/06/27 04:31:38;;;;;;;6.85;2.45;;;;;;;14.47;71.11;96468.84;2107366;28;20440;-58
2023/06/27 04:32:39;;;;;;;4.68;2.35;;;;;;;14.48;70.75;96472.28;2107213;28;20051;-58
2023/06/27 04:33:40;;;;;;;7.40;1.98;;;;;;;14.51;70.91;96470.38;2107260;28;20074;-58
2023/06/27 04:34:41;;;;;;;4.50;2.28;;;;;;;14.54;70.29;96457.16;2107012;28;20476;-58
2023/06/27 04:35:42;;;;;;;9.93;2.47;;;;;;;14.57;70.62;96477.06;2106900;28;20062;-58
2023/06/27 04:36:43;;;;;;;5.95;2.67;;;;;;;14.60;70.05;96465.59;2107358;28;20059;-58
2023/06/27 04:37:45;;;;;;;7.07;2.20;;;;;;;14.61;70.46;96468.09;2106622;28;20052;-58
2023/06/27 04:38:48;;;;;;;7.22;2.42;;;;;;;14.63;70.02;96452.34;2107244;28;20392;-58
2023/06/27 04:39:49;;;;;;;7.28;2.53;;;;;;;14.65;69.71;96453.94;2107072;28;20087;-58
2023/06/27 04:40:50;;;;;;;6.90;2.22;;;;;;;14.66;69.32;96460.00;2106097;28;20051;-58
2023/06/27 04:41:51;;;;;;;6.15;2.30;;;;;;;14.69;69.23;96465.91;2106298;28;20051;-58
2023/06/27 04:42:52;;;;;;;5.13;1.92;;;;;;;14.74;69.48;96458.66;2106430;28;20035;-59
2023/06/27 04:43:54;;;;;;;5.00;2.17;;;;;;;14.81;69.91;96455.69;2105779;28;20051;-59
2023/06/27 04:44:55;;;;;;;6.03;2.25;;;;;;;14.83;68.82;96462.50;2106965;28;20040;-58
2023/06/27 04:45:56;;;;;;;5.00;2.20;;;;;;;14.83;67.52;96467.75;2107127;28;20047;-58
2023/06/27 04:46:57;;;;;;;6.75;2.08;;;;;;;14.85;67.99;96465.03;2106774;28;20142;-58
2023/06/27 04:47:59;;;;;;;7.30;2.45;;;;;;;14.88;67.50;96463.09;2107065;28;20150;-58
2023/06/27 04:49:00;;;;;;;5.28;2.20;;;;;;;14.86;67.59;96457.13;2107144;28;20043;-58
2023/06/27 04:50:03;;;;;;;7.22;2.50;;;;;;;14.92;68.40;96466.41;2106942;28;20044;-59
2023/06/27 04:51:04;;;;;;;6.43;2.58;;;;;;;14.96;67.69;96467.88;2107037;28;20055;-59
2023/06/27 04:52:05;;;;;;;5.05;2.33;;;;;;;14.96;67.89;96463.50;2106743;28;20048;-58
2023/06/27 04:53:06;;;;;;;6.47;2.30;;;;;;;15.00;67.71;96467.63;2106545;28;20056;-58